Time;durP1;ratioP1;P1;durP2;ratioP2;P2;SDS_P1;SDS_P2;PMS_P1;PMS_P2;Temp;Humidity;BMP_temperature;BMP_pressure;BME280_temperature;BME280_humidity;BME280_pressure;Samples;Min_cycle;Max_cycle;Signal;HPM_P1;HPM_P2
2021/05/16 00:00:26;;;;;;;6.53;2.42;;;;;;;12.90;64.35;97693.91;4988776;28;20068;-77
2021/05/16 00:02:52;;;;;;;18.48;9.07;;;;;;;12.79;64.63;97681.34;4996107;28;20026;-77
2021/05/16 00:05:22;;;;;;;14.45;7.35;;;;;;;12.79;64.28;97687.34;4997192;28;20097;-77
2021/05/16 00:07:47;;;;;;;7.78;4.43;;;;;;;12.94;64.53;97704.78;4982788;28;20097;-78
2021/05/16 00:10:14;;;;;;;10.10;5.00;;;;;;;13.07;64.09;97704.97;5021908;28;20093;-77
2021/05/16 00:12:40;;;;;;;6.88;3.33;;;;;;;13.05;64.30;97701.72;4983132;28;20025;-77
2021/05/16 00:15:08;;;;;;;5.97;2.88;;;;;;;13.05;63.50;97678.22;4994701;28;20021;-77
2021/05/16 00:17:34;;;;;;;5.68;2.65;;;;;;;13.25;63.60;97707.16;4998111;28;20087;-77
2021/05/16 00:19:59;;;;;;;4.97;2.20;;;;;;;13.19;63.57;97700.88;5018514;28;20029;-77
2021/05/16 00:22:25;;;;;;;13.93;6.57;;;;;;;12.87;63.82;97661.19;5002602;28;20736;-77
2021/05/16 00:24:50;;;;;;;12.18;5.15;;;;;;;13.02;63.56;97682.03;4993733;28;20018;-77
2021/05/16 00:27:16;;;;;;;7.13;2.92;;;;;;;13.16;63.35;97685.59;4997507;28;20175;-77
2021/05/16 00:29:41;;;;;;;13.13;6.00;;;;;;;13.03;63.26;97680.22;5011380;28;20718;-77
2021/05/16 00:32:07;;;;;;;12.25;6.63;;;;;;;12.90;63.27;97678.25;4990726;28;20041;-77
2021/05/16 00:34:32;;;;;;;13.88;6.15;;;;;;;13.11;62.87;97682.72;4977734;28;20205;-77
2021/05/16 00:36:58;;;;;;;9.18;4.97;;;;;;;13.08;62.54;97670.84;4995561;28;20030;-76
2021/05/16 00:39:23;;;;;;;7.13;3.90;;;;;;;13.12;62.93;97691.38;5015621;28;20037;-77
2021/05/16 00:41:49;;;;;;;6.40;2.83;;;;;;;12.93;63.38;97666.66;5018359;28;20030;-77
2021/05/16 00:44:16;;;;;;;5.65;2.15;;;;;;;13.09;63.25;97697.78;4987659;28;20029;-77
2021/05/16 00:46:41;;;;;;;5.95;2.80;;;;;;;13.09;63.53;97674.28;4986372;28;20113;-77
2021/05/16 00:49:07;;;;;;;5.95;2.30;;;;;;;12.93;63.51;97656.22;5022576;28;20137;-77
2021/05/16 00:51:32;;;;;;;5.07;2.55;;;;;;;13.05;63.15;97652.13;5003333;28;20176;-77
2021/05/16 00:53:58;;;;;;;5.68;2.30;;;;;;;13.10;63.10;97657.63;4988269;28;20030;-77
2021/05/16 00:56:23;;;;;;;7.45;3.70;;;;;;;13.06;63.14;97653.75;4989357;28;20556;-77
2021/05/16 00:58:48;;;;;;;8.63;4.32;;;;;;;13.08;62.34;97660.41;5005517;28;20075;-77
2021/05/16 01:01:16;;;;;;;5.60;2.65;;;;;;;12.83;63.52;97687.78;4984855;28;20014;-77
2021/05/16 01:03:42;;;;;;;7.53;4.03;;;;;;;12.61;63.85;97679.91;4985037;28;20041;-77
2021/05/16 01:06:07;;;;;;;9.30;4.95;;;;;;;12.58;64.19;97672.44;5002384;28;20091;-77
2021/05/16 01:08:33;;;;;;;7.03;3.17;;;;;;;12.68;64.30;97686.00;5021017;28;20031;-77
2021/05/16 01:10:59;;;;;;;7.13;3.40;;;;;;;12.81;64.28;97689.78;5020942;28;20029;-77
2021/05/16 01:13:26;;;;;;;5.95;2.47;;;;;;;12.88;64.83;97686.25;5006356;28;20689;-77
2021/05/16 01:15:52;;;;;;;5.00;2.08;;;;;;;12.98;64.30;97685.19;4993124;28;20029;-77
2021/05/16 01:18:19;;;;;;;4.82;2.00;;;;;;;12.96;64.09;97676.72;5003210;28;21293;-77
2021/05/16 01:20:50;;;;;;;8.35;2.53;;;;;;;12.83;63.59;97649.50;5004108;28;20072;-77
2021/05/16 01:23:23;;;;;;;4.75;2.28;;;;;;;12.79;63.88;97653.44;5004737;28;20025;-77
2021/05/16 01:25:49;;;;;;;5.40;1.80;;;;;;;12.72;64.06;97662.97;5001863;28;20034;-77
2021/05/16 01:28:16;;;;;;;5.03;2.20;;;;;;;12.90;63.86;97667.81;4985565;28;20706;-77
2021/05/16 01:30:44;;;;;;;8.25;3.40;;;;;;;12.99;64.10;97679.78;4985916;28;20033;-77
2021/05/16 01:33:11;;;;;;;6.75;3.15;;;;;;;12.99;64.03;97678.97;5001543;28;20101;-77
2021/05/16 01:35:37;;;;;;;6.50;2.50;;;;;;;12.89;63.90;97653.97;4992939;28;20030;-76
2021/05/16 01:38:04;;;;;;;7.35;2.80;;;;;;;12.92;64.01;97652.78;5016115;28;20029;-77
2021/05/16 01:40:30;;;;;;;4.18;1.90;;;;;;;12.87;63.79;97647.34;4999504;28;20033;-77
2021/05/16 01:42:57;;;;;;;4.28;1.70;;;;;;;13.10;63.24;97660.22;4985258;28;20296;-77
2021/05/16 01:45:26;;;;;;;4.07;1.65;;;;;;;13.11;63.08;97661.06;4983204;28;20021;-77
2021/05/16 01:47:53;;;;;;;4.82;1.52;;;;;;;12.99;63.11;97645.03;5007368;28;20025;-77
2021/05/16 01:50:20;;;;;;;4.03;1.58;;;;;;;13.11;63.49;97671.50;5013706;28;20064;-77
2021/05/16 01:52:47;;;;;;;4.38;1.70;;;;;;;13.14;63.49;97664.09;5002284;28;20025;-77
2021/05/16 01:55:14;;;;;;;4.97;1.83;;;;;;;13.13;64.24;97664.28;4989476;28;20030;-77
2021/05/16 01:57:40;;;;;;;5.43;2.50;;;;;;;12.84;64.64;97665.94;4993196;28;20584;-77
2021/05/16 02:00:10;;;;;;;4.18;1.83;;;;;;;12.64;64.87;97631.78;4987570;28;20585;-77
2021/05/16 02:02:37;;;;;;;3.95;1.58;;;;;;;12.62;64.99;97655.44;4998669;28;20076;-77
2021/05/16 02:05:04;;;;;;;3.78;1.58;;;;;;;12.77;64.91;97655.44;5000769;28;20052;-77
2021/05/16 02:07:31;;;;;;;6.45;2.10;;;;;;;12.60;65.89;97643.59;5002110;28;20021;-77
2021/05/16 02:09:57;;;;;;;3.72;1.50;;;;;;;12.56;66.05;97656.19;4982735;28;20107;-76
2021/05/16 02:12:22;;;;;;;4.53;1.55;;;;;;;12.56;66.11;97629.28;5001429;28;20200;-77
2021/05/16 02:14:48;;;;;;;4.97;1.38;;;;;;;12.81;65.37;97648.03;4983969;28;20031;-77
2021/05/16 02:17:14;;;;;;;3.03;1.20;;;;;;;12.65;64.60;97602.13;4986187;28;20112;-75
2021/05/16 02:19:40;;;;;;;3.50;1.40;;;;;;;12.83;64.63;97651.28;4979543;28;20029;-76
2021/05/16 02:22:06;;;;;;;3.78;1.23;;;;;;;12.74;64.81;97645.38;5001500;28;20029;-76
2021/05/16 02:24:32;;;;;;;6.30;1.50;;;;;;;12.80;64.82;97641.22;4997402;28;20021;-76
2021/05/16 02:27:01;;;;;;;4.57;1.30;;;;;;;12.91;64.14;97653.00;4966658;28;20460;-76
2021/05/16 02:29:30;;;;;;;3.97;1.20;;;;;;;12.78;63.81;97644.00;4998187;28;20527;-76
2021/05/16 02:31:57;;;;;;;3.42;1.20;;;;;;;12.76;64.19;97666.88;4998594;28;20041;-76
2021/05/16 02:34:23;;;;;;;4.60;1.70;;;;;;;12.59;64.71;97668.03;5000023;28;20585;-76
2021/05/16 02:36:48;;;;;;;4.38;1.50;;;;;;;12.65;64.59;97662.13;4986229;28;20045;-76
2021/05/16 02:39:14;;;;;;;3.80;1.48;;;;;;;12.80;64.30;97665.50;4999770;28;20098;-75
2021/05/16 02:41:39;;;;;;;3.30;1.20;;;;;;;12.96;63.23;97669.72;4999010;28;20040;-76
2021/05/16 02:44:05;;;;;;;3.35;1.30;;;;;;;12.89;63.83;97658.38;4981861;28;20029;-76
2021/05/16 02:46:31;;;;;;;3.70;1.33;;;;;;;12.89;64.77;97685.28;4991865;28;20068;-76
2021/05/16 02:48:56;;;;;;;3.90;1.50;;;;;;;12.76;64.72;97672.09;5015173;28;20043;-75
2021/05/16 02:51:22;;;;;;;4.35;1.60;;;;;;;12.62;65.46;97686.75;4996880;28;20025;-76
2021/05/16 02:53:48;;;;;;;4.93;1.40;;;;;;;12.73;64.98;97698.53;4999373;28;20044;-76
2021/05/16 02:56:14;;;;;;;4.32;1.50;;;;;;;12.60;64.96;97687.91;4982388;28;20025;-76
2021/05/16 02:58:41;;;;;;;3.53;1.40;;;;;;;12.42;65.48;97670.03;4982150;28;20028;-76
2021/05/16 03:01:06;;;;;;;3.90;1.40;;;;;;;12.44;65.75;97674.06;4999663;28;20074;-76
2021/05/16 03:03:32;;;;;;;5.00;1.60;;;;;;;12.50;65.96;97680.34;4990950;28;20029;-76
2021/05/16 03:05:57;;;;;;;3.63;1.45;;;;;;;12.76;65.38;97689.50;4989938;28;20037;-76
2021/05/16 03:08:23;;;;;;;3.78;1.33;;;;;;;12.72;64.91;97662.19;4996352;28;20108;-76
2021/05/16 03:10:48;;;;;;;3.22;1.25;;;;;;;12.83;64.97;97662.53;4991232;28;20025;-76
2021/05/16 03:13:13;;;;;;;4.68;1.40;;;;;;;12.65;64.80;97634.22;4995653;28;20092;-76
2021/05/16 03:15:39;;;;;;;4.68;1.30;;;;;;;12.76;64.93;97653.00;4977644;28;20632;-76
2021/05/16 03:18:04;;;;;;;3.67;1.20;;;;;;;12.72;64.97;97665.59;4997099;28;20021;-76
2021/05/16 03:20:30;;;;;;;2.78;1.10;;;;;;;12.68;64.78;97643.47;4993518;28;20021;-76
2021/05/16 03:22:55;;;;;;;2.92;1.20;;;;;;;12.63;65.08;97640.59;5010213;28;20027;-76
2021/05/16 03:25:21;;;;;;;3.20;1.27;;;;;;;12.65;65.31;97669.94;4980775;28;20044;-76
2021/05/16 03:27:46;;;;;;;3.13;1.20;;;;;;;12.56;65.40;97652.75;5014034;28;20025;-76
2021/05/16 03:30:12;;;;;;;3.63;1.33;;;;;;;12.43;65.54;97635.13;4999072;28;20022;-76
2021/05/16 03:32:40;;;;;;;6.03;1.30;;;;;;;12.47;65.54;97660.66;4983429;28;20049;-77
2021/05/16 03:35:07;;;;;;;4.95;1.10;;;;;;;12.43;65.66;97682.88;4983665;28;20029;-77
2021/05/16 03:37:32;;;;;;;3.70;1.20;;;;;;;12.25;65.67;97649.34;4993306;28;20021;-77
2021/05/16 03:39:58;;;;;;;3.38;1.00;;;;;;;12.33;65.54;97645.81;4979981;28;20030;-76
2021/05/16 03:42:24;;;;;;;3.75;1.00;;;;;;;12.42;65.07;97642.16;4998919;28;20236;-77
2021/05/16 03:44:49;;;;;;;3.63;1.00;;;;;;;12.45;65.10;97646.22;4997679;28;20046;-77
2021/05/16 03:47:15;;;;;;;2.95;1.10;;;;;;;12.46;65.05;97642.59;4985292;28;20017;-77
2021/05/16 03:49:40;;;;;;;7.18;1.40;;;;;;;12.54;64.80;97652.94;4998579;28;20057;-77
2021/05/16 03:52:06;;;;;;;3.63;1.13;;;;;;;12.44;64.44;97632.34;4999835;28;20021;-77
2021/05/16 03:54:31;;;;;;;3.50;1.10;;;;;;;12.50;63.84;97625.59;4999468;28;20017;-77
2021/05/16 03:56:57;;;;;;;3.55;1.00;;;;;;;12.50;63.91;97638.63;5016895;28;20021;-77
2021/05/16 03:59:22;;;;;;;2.63;1.00;;;;;;;12.55;64.04;97640.72;4993880;28;20014;-77
2021/05/16 04:01:49;;;;;;;3.15;1.00;;;;;;;12.37;64.93;97644.47;4995149;28;20648;-77
2021/05/16 04:04:15;;;;;;;3.28;1.10;;;;;;;12.37;65.09;97667.13;5001114;28;20230;-77
2021/05/16 04:06:40;;;;;;;3.55;1.20;;;;;;;12.40;64.86;97653.75;4996010;28;20090;-77
2021/05/16 04:09:06;;;;;;;4.15;1.40;;;;;;;12.33;65.17;97639.81;5012447;28;20037;-77
2021/05/16 04:11:31;;;;;;;4.00;1.25;;;;;;;12.39;65.36;97655.53;4996832;28;20018;-77
2021/05/16 04:13:57;;;;;;;3.78;1.20;;;;;;;12.47;65.10;97667.69;5014615;28;20022;-77
2021/05/16 04:16:22;;;;;;;3.53;1.20;;;;;;;12.30;65.40;97646.19;5016042;28;20623;-77
2021/05/16 04:18:47;;;;;;;3.38;1.10;;;;;;;12.26;65.94;97635.28;5000845;28;20711;-77
2021/05/16 04:21:13;;;;;;;2.40;0.90;;;;;;;12.33;66.35;97663.28;5018620;28;20029;-77
2021/05/16 04:23:38;;;;;;;3.80;1.25;;;;;;;12.23;65.95;97637.44;5001351;28;20021;-77
2021/05/16 04:26:04;;;;;;;3.45;1.10;;;;;;;12.14;66.39;97643.75;5002712;28;20548;-79
2021/05/16 04:28:29;;;;;;;3.17;1.20;;;;;;;12.24;66.07;97641.69;5017562;28;20010;-77
2021/05/16 04:30:55;;;;;;;4.10;1.08;;;;;;;12.36;65.83;97663.72;5019773;28;20061;-76
2021/05/16 04:33:20;;;;;;;3.83;1.15;;;;;;;12.13;65.98;97629.91;5000409;28;20034;-77
2021/05/16 04:35:46;;;;;;;5.53;1.45;;;;;;;12.30;66.13;97641.78;4999778;28;20052;-77
2021/05/16 04:38:11;;;;;;;4.55;1.30;;;;;;;12.31;66.23;97648.59;4985114;28;20037;-77
2021/05/16 04:40:37;;;;;;;3.47;1.10;;;;;;;12.44;65.47;97674.06;5000486;28;20017;-77
2021/05/16 04:43:02;;;;;;;3.22;1.05;;;;;;;12.35;65.75;97669.91;4985085;28;20017;-77
2021/05/16 04:45:28;;;;;;;2.40;0.95;;;;;;;12.37;65.78;97665.31;5017586;28;20052;-77
2021/05/16 04:47:53;;;;;;;3.45;1.30;;;;;;;12.32;66.30;97667.69;5000060;28;20719;-77
2021/05/16 04:50:19;;;;;;;2.63;1.00;;;;;;;12.25;66.03;97656.34;4987925;28;20017;-77
2021/05/16 04:52:45;;;;;;;2.72;1.10;;;;;;;12.34;65.79;97659.66;4987692;28;20625;-77
2021/05/16 04:55:12;;;;;;;3.17;1.05;;;;;;;11.87;66.74;97640.72;4998353;28;20067;-77
2021/05/16 04:57:37;;;;;;;2.78;1.10;;;;;;;12.10;66.66;97662.34;4999348;28;20026;-76
2021/05/16 05:00:04;;;;;;;3.03;1.08;;;;;;;12.10;66.73;97670.16;4992434;28;20293;-76
2021/05/16 05:02:30;;;;;;;3.58;1.10;;;;;;;12.25;66.64;97674.59;4989498;28;20031;-77
2021/05/16 05:04:55;;;;;;;2.80;1.00;;;;;;;12.23;66.70;97692.19;5009701;28;20025;-76
2021/05/16 05:07:21;;;;;;;2.85;1.00;;;;;;;12.38;66.16;97687.00;4991934;28;20100;-76
2021/05/16 05:09:46;;;;;;;3.35;1.20;;;;;;;12.45;66.63;97691.31;4995741;28;20022;-77
2021/05/16 05:12:12;;;;;;;5.30;1.00;;;;;;;12.58;66.66;97697.72;5000717;28;20041;-76
2021/05/16 05:14:37;;;;;;;4.25;1.00;;;;;;;12.49;66.85;97703.00;4992940;28;20692;-77
2021/05/16 05:17:03;;;;;;;2.67;1.02;;;;;;;12.44;67.21;97687.09;4994255;28;20021;-77
2021/05/16 05:19:28;;;;;;;3.25;1.20;;;;;;;12.54;67.34;97692.06;4973254;28;20041;-77
2021/05/16 05:21:54;;;;;;;4.50;1.33;;;;;;;12.55;67.37;97682.44;4992221;28;20112;-76
2021/05/16 05:24:19;;;;;;;4.32;1.10;;;;;;;12.50;67.29;97675.13;4974295;28;20014;-76
2021/05/16 05:26:45;;;;;;;3.05;1.10;;;;;;;12.47;66.86;97665.88;4971305;28;20770;-76
2021/05/16 05:29:10;;;;;;;3.45;1.05;;;;;;;12.61;66.96;97694.75;5003387;28;20123;-76
2021/05/16 05:31:36;;;;;;;2.83;0.90;;;;;;;12.69;66.40;97686.84;4975597;28;20517;-76
2021/05/16 05:34:04;;;;;;;4.20;1.20;;;;;;;12.69;66.05;97681.63;5003728;28;20603;-76
2021/05/16 05:36:29;;;;;;;3.33;0.90;;;;;;;12.75;65.65;97691.31;5008689;28;20860;-76
2021/05/16 05:38:56;;;;;;;3.60;1.20;;;;;;;12.73;65.21;97690.69;4990067;28;20033;-76
2021/05/16 05:41:21;;;;;;;4.65;1.17;;;;;;;12.69;64.78;97694.66;4992935;28;20091;-76
2021/05/16 05:43:47;;;;;;;3.35;1.10;;;;;;;12.59;64.90;97683.69;5006418;28;20063;-76
2021/05/16 05:46:12;;;;;;;3.67;1.10;;;;;;;12.70;64.32;97685.84;5005418;28;20108;-74
2021/05/16 05:48:38;;;;;;;3.88;1.08;;;;;;;12.68;64.41;97682.59;4981010;28;20036;-76
2021/05/16 05:51:04;;;;;;;3.70;1.00;;;;;;;12.60;64.82;97670.47;4973964;28;20022;-75
2021/05/16 05:53:30;;;;;;;2.90;1.00;;;;;;;12.45;64.69;97657.44;5006580;28;20887;-75
2021/05/16 05:55:55;;;;;;;2.67;1.00;;;;;;;12.66;64.03;97671.53;4980494;28;20022;-76
2021/05/16 05:58:21;;;;;;;3.85;1.70;;;;;;;12.58;64.73;97669.03;4984733;28;20177;-76
2021/05/16 06:00:46;;;;;;;3.38;0.90;;;;;;;12.68;64.84;97670.34;5005550;28;20137;-75
2021/05/16 06:03:11;;;;;;;2.92;1.00;;;;;;;12.74;64.30;97652.38;4980661;28;20029;-74
2021/05/16 06:05:37;;;;;;;4.20;1.02;;;;;;;12.49;63.92;97601.31;4986956;28;20025;-76
2021/05/16 06:08:03;;;;;;;2.90;0.98;;;;;;;12.84;64.20;97669.38;5009658;28;20087;-73
2021/05/16 06:10:28;;;;;;;2.78;1.05;;;;;;;12.79;64.61;97684.75;4993028;28;20136;-74
2021/05/16 06:12:54;;;;;;;3.15;0.90;;;;;;;12.85;64.16;97673.59;5006951;28;20049;-70
2021/05/16 06:15:20;;;;;;;6.22;1.20;;;;;;;12.76;64.86;97666.88;4994726;28;20025;-73
2021/05/16 06:17:45;;;;;;;3.38;1.00;;;;;;;12.72;65.26;97664.78;5013943;28;20037;-74
2021/05/16 06:20:11;;;;;;;3.33;1.08;;;;;;;12.72;65.02;97649.94;4976496;28;20017;-76
2021/05/16 06:22:37;;;;;;;3.92;1.00;;;;;;;12.70;64.15;97657.13;4993332;28;20049;-75
2021/05/16 06:25:03;;;;;;;4.30;1.23;;;;;;;12.78;64.86;97667.50;5008315;28;20568;-75
2021/05/16 06:27:29;;;;;;;3.70;1.15;;;;;;;12.74;64.80;97663.63;4985400;28;20882;-77
2021/05/16 06:29:54;;;;;;;3.72;1.10;;;;;;;12.82;63.45;97688.81;4982378;28;20048;-78
2021/05/16 06:32:19;;;;;;;2.85;1.08;;;;;;;12.66;63.82;97663.72;5006844;28;20032;-77
2021/05/16 06:34:45;;;;;;;3.35;1.20;;;;;;;12.77;63.56;97706.78;4990262;28;20033;-77
2021/05/16 06:37:10;;;;;;;3.35;1.10;;;;;;;12.61;64.26;97715.59;4983161;28;20029;-78
2021/05/16 06:39:36;;;;;;;2.83;1.00;;;;;;;12.80;64.46;97720.28;5019691;28;20886;-78
2021/05/16 06:42:01;;;;;;;3.40;1.17;;;;;;;12.79;64.72;97716.03;4987320;28;20056;-74
2021/05/16 06:44:27;;;;;;;4.05;1.10;;;;;;;12.55;64.52;97670.19;4977645;28;20047;-76
2021/05/16 06:46:53;;;;;;;3.70;1.00;;;;;;;12.88;64.87;97699.31;4993927;28;20061;-78
2021/05/16 06:49:19;;;;;;;2.60;1.05;;;;;;;12.87;64.54;97700.31;4975341;28;20606;-76
2021/05/16 06:51:45;;;;;;;5.40;1.35;;;;;;;12.95;64.98;97703.81;4984408;28;20030;-75
2021/05/16 06:54:10;;;;;;;3.30;1.15;;;;;;;13.00;64.04;97693.66;4984106;28;20597;-72
2021/05/16 06:56:36;;;;;;;3.58;1.27;;;;;;;12.89;64.41;97672.22;5008771;28;20025;-75
2021/05/16 06:59:03;;;;;;;5.43;1.30;;;;;;;12.96;64.97;97671.50;4991846;28;20029;-75
2021/05/16 07:01:28;;;;;;;3.17;0.90;;;;;;;13.09;63.15;97684.72;4968331;28;20026;-75
2021/05/16 07:03:54;;;;;;;2.95;1.02;;;;;;;13.12;61.96;97689.56;4989924;28;20144;-75
2021/05/16 07:06:19;;;;;;;3.22;1.00;;;;;;;13.13;61.60;97685.16;5004198;28;20235;-73
2021/05/16 07:08:48;;;;;;;5.13;1.08;;;;;;;13.15;60.89;97678.75;4984913;28;20057;-75
2021/05/16 07:11:13;;;;;;;2.72;1.02;;;;;;;13.29;60.81;97711.03;4987381;28;20033;-76
2021/05/16 07:13:39;;;;;;;2.92;0.90;;;;;;;13.32;60.89;97709.88;4969592;28;20075;-74
2021/05/16 07:16:05;;;;;;;3.60;1.05;;;;;;;13.33;60.65;97698.47;4997335;28;20101;-76
2021/05/16 07:18:31;;;;;;;3.75;1.20;;;;;;;13.40;61.95;97692.31;4991328;28;20060;-76
2021/05/16 07:20:56;;;;;;;3.95;1.25;;;;;;;13.37;62.19;97671.00;4975608;28;20045;-75
2021/05/16 07:23:22;;;;;;;3.75;0.98;;;;;;;13.54;61.82;97682.00;4985854;28;20044;-76
2021/05/16 07:25:48;;;;;;;2.17;0.82;;;;;;;13.52;61.00;97689.22;4982571;28;20040;-74
2021/05/16 07:28:13;;;;;;;4.55;1.00;;;;;;;13.43;60.94;97702.41;4973994;28;20097;-75
2021/05/16 07:30:39;;;;;;;3.20;0.90;;;;;;;13.38;60.02;97689.09;4978198;28;20033;-80
2021/05/16 07:33:04;;;;;;;2.70;0.90;;;;;;;13.48;59.81;97686.16;4988411;28;20133;-79
2021/05/16 07:35:30;;;;;;;3.67;1.20;;;;;;;13.62;59.17;97700.97;4993443;28;20084;-79
2021/05/16 07:37:55;;;;;;;3.30;1.23;;;;;;;13.46;60.04;97696.78;4974476;28;20061;-80
2021/05/16 07:40:21;;;;;;;4.32;1.17;;;;;;;13.71;59.99;97696.44;4974386;28;20780;-78
2021/05/16 07:42:49;;;;;;;2.88;1.10;;;;;;;13.68;59.93;97686.34;4973198;28;20652;-78
2021/05/16 07:45:16;;;;;;;3.45;1.30;;;;;;;13.68;61.34;97682.94;4981753;28;20112;-80
2021/05/16 07:47:42;;;;;;;3.10;1.13;;;;;;;13.77;60.61;97682.63;4973192;28;20072;-79
2021/05/16 07:50:09;;;;;;;4.32;1.48;;;;;;;13.99;60.45;97678.16;4999520;28;20033;-78
2021/05/16 07:52:34;;;;;;;3.33;1.30;;;;;;;13.98;60.32;97681.81;4996291;28;20030;-74
2021/05/16 07:55:00;;;;;;;3.92;1.30;;;;;;;13.94;59.12;97685.75;4965489;28;20865;-79
2021/05/16 07:57:25;;;;;;;4.68;1.20;;;;;;;14.12;60.30;97697.56;4999983;28;20040;-78
2021/05/16 07:59:52;;;;;;;3.83;1.40;;;;;;;14.38;58.93;97697.78;4986897;28;20104;-78
2021/05/16 08:02:18;;;;;;;4.00;1.30;;;;;;;14.48;59.49;97694.00;4989305;28;20029;-78
2021/05/16 08:04:43;;;;;;;3.92;1.38;;;;;;;14.50;60.33;97705.09;4972934;28;20030;-74
2021/05/16 08:07:09;;;;;;;4.40;1.20;;;;;;;14.59;59.79;97712.63;4995747;28;21421;-75
2021/05/16 08:09:36;;;;;;;4.35;1.60;;;;;;;14.67;60.09;97695.16;4983666;28;20026;-75
2021/05/16 08:12:01;;;;;;;4.25;1.50;;;;;;;14.66;60.65;97696.97;4995630;28;20022;-75
2021/05/16 08:14:28;;;;;;;5.15;1.50;;;;;;;14.73;62.22;97694.38;4968667;28;20028;-74
2021/05/16 08:16:54;;;;;;;3.80;1.25;;;;;;;14.71;61.87;97696.38;4993889;28;20136;-74
2021/05/16 08:19:20;;;;;;;4.28;1.15;;;;;;;14.68;59.99;97697.56;4981855;28;20184;-75
2021/05/16 08:21:48;;;;;;;2.97;1.08;;;;;;;14.73;60.16;97670.81;4990959;28;20033;-75
2021/05/16 08:24:14;;;;;;;3.30;0.98;;;;;;;15.02;58.01;97682.00;4978990;28;20056;-75
2021/05/16 08:26:41;;;;;;;3.92;1.10;;;;;;;14.99;57.85;97670.13;4975853;28;20111;-74
2021/05/16 08:29:07;;;;;;;3.40;1.00;;;;;;;14.95;59.19;97666.31;4991905;28;20080;-74
2021/05/16 08:31:35;;;;;;;2.50;1.08;;;;;;;15.22;58.70;97667.16;4992724;28;20030;-74
2021/05/16 08:34:05;;;;;;;3.92;1.15;;;;;;;15.14;57.53;97665.53;4997733;28;20034;-75
2021/05/16 08:36:33;;;;;;;3.42;1.10;;;;;;;15.21;58.31;97670.81;4981290;28;20131;-75
2021/05/16 08:38:59;;;;;;;3.10;1.20;;;;;;;15.24;59.34;97659.13;4983388;28;20022;-75
2021/05/16 08:41:24;;;;;;;2.75;1.05;;;;;;;15.44;59.41;97656.56;4986715;28;20029;-75
2021/05/16 08:43:50;;;;;;;3.75;1.20;;;;;;;15.52;58.97;97646.69;4975827;28;20044;-75
2021/05/16 08:46:16;;;;;;;3.90;1.20;;;;;;;15.55;59.93;97648.09;4972897;28;20030;-75
2021/05/16 08:48:41;;;;;;;2.95;1.00;;;;;;;15.57;60.71;97653.97;4986518;28;20041;-75
2021/05/16 08:51:06;;;;;;;5.78;1.23;;;;;;;15.78;59.56;97668.72;4986207;28;20026;-75
2021/05/16 08:53:34;;;;;;;4.28;1.50;;;;;;;15.80;59.47;97666.69;4977360;28;20332;-76
2021/05/16 08:55:59;;;;;;;4.57;1.40;;;;;;;15.79;59.09;97659.84;4997206;28;20025;-75
2021/05/16 08:58:25;;;;;;;4.60;1.30;;;;;;;15.82;58.14;97656.81;4983159;28;20026;-73
2021/05/16 09:00:50;;;;;;;4.72;1.38;;;;;;;15.83;57.31;97655.03;4980722;28;20222;-72
2021/05/16 09:03:17;;;;;;;3.97;1.42;;;;;;;15.83;58.40;97658.44;4972940;28;20117;-73
2021/05/16 09:05:48;;;;;;;5.65;1.52;;;;;;;15.92;58.64;97665.09;4996567;28;20057;-75
2021/05/16 09:08:16;;;;;;;3.25;1.05;;;;;;;15.99;58.49;97664.28;4987408;28;20090;-75
2021/05/16 09:10:55;;;;;;;2.90;1.15;;;;;;;16.02;58.27;97667.31;4996279;28;20034;-77
2021/05/16 09:13:23;;;;;;;3.43;1.23;;;;;;;16.04;59.12;97670.53;4986337;28;20037;-73
2021/05/16 09:16:17;;;;;;;4.28;1.10;;;;;;;16.08;59.57;97663.88;4979624;28;20265;-74
2021/05/16 09:18:47;;;;;;;3.38;1.10;;;;;;;15.86;59.23;97637.09;4979224;28;20183;-73
2021/05/16 09:21:31;;;;;;;7.88;1.20;;;;;;;16.02;58.93;97653.38;4981197;28;20690;-71
2021/05/16 09:24:00;;;;;;;3.63;1.00;;;;;;;16.14;58.63;97670.94;4976259;28;20721;-69
2021/05/16 09:26:29;;;;;;;3.90;1.15;;;;;;;16.17;59.01;97674.16;4988968;28;20157;-70
2021/05/16 09:28:55;;;;;;;3.55;1.10;;;;;;;16.31;57.61;97670.50;4984878;28;20033;-69
2021/05/16 09:31:41;;;;;;;3.72;1.20;;;;;;;16.33;58.47;97673.72;4997246;28;20043;-69
2021/05/16 09:34:06;;;;;;;3.55;1.15;;;;;;;16.45;59.21;97679.16;4966239;28;20057;-70
2021/05/16 09:36:33;;;;;;;3.50;1.38;;;;;;;16.44;59.16;97674.91;4997770;28;20072;-69
2021/05/16 09:39:22;;;;;;;3.67;1.00;;;;;;;16.62;56.80;97672.44;4985119;28;20028;-72
2021/05/16 09:41:58;;;;;;;4.05;1.20;;;;;;;16.61;55.81;97668.22;4972530;28;20757;-70
2021/05/16 09:44:46;;;;;;;4.10;1.20;;;;;;;16.78;55.71;97660.69;4973002;28;20863;-71
2021/05/16 09:47:20;;;;;;;3.83;1.25;;;;;;;16.81;56.71;97669.97;4983714;28;20022;-71
2021/05/16 09:49:48;;;;;;;3.33;0.95;;;;;;;16.86;56.05;97664.94;4973114;28;20830;-70
2021/05/16 09:52:19;;;;;;;3.25;1.00;;;;;;;16.91;55.87;97660.66;4997374;28;20021;-69
2021/05/16 09:55:19;;;;;;;4.18;1.02;;;;;;;16.97;56.41;97664.28;4982033;28;20652;-69
2021/05/16 09:57:48;;;;;;;3.90;1.10;;;;;;;16.89;55.69;97661.91;4923815;28;20092;-69
2021/05/16 10:00:16;;;;;;;4.40;0.93;;;;;;;16.83;54.43;97649.59;4959306;28;20022;-69
2021/05/16 10:02:42;;;;;;;3.30;1.15;;;;;;;16.89;53.60;97651.41;4990989;28;20241;-69
2021/05/16 10:05:10;;;;;;;3.38;0.98;;;;;;;16.99;54.50;97649.13;4971111;28;20037;-71
2021/05/16 10:07:41;;;;;;;2.72;0.90;;;;;;;16.92;53.36;97643.13;4995148;28;20120;-73
2021/05/16 10:10:10;;;;;;;3.95;1.05;;;;;;;17.05;54.55;97629.91;4997300;28;20029;-73
2021/05/16 10:12:36;;;;;;;3.72;1.15;;;;;;;17.29;51.33;97625.72;4975262;28;20021;-72
2021/05/16 10:15:14;;;;;;;4.03;1.20;;;;;;;17.21;50.47;97643.56;4979404;28;20026;-70
2021/05/16 10:17:42;;;;;;;5.63;1.40;;;;;;;17.12;49.52;97640.38;4983418;28;20048;-74
2021/05/16 10:20:13;;;;;;;3.80;1.10;;;;;;;16.99;50.93;97635.19;4990446;28;20593;-77
2021/05/16 10:22:40;;;;;;;3.50;1.20;;;;;;;16.95;50.01;97621.69;4989607;28;20021;-71
2021/05/16 10:25:06;;;;;;;3.10;1.00;;;;;;;17.21;50.13;97635.69;4987522;28;20147;-71
2021/05/16 10:27:42;;;;;;;4.47;1.38;;;;;;;17.16;49.87;97619.75;4985836;28;20482;-72
2021/05/16 10:30:08;;;;;;;4.32;1.30;;;;;;;17.27;49.26;97632.22;4989548;28;20588;-72
2021/05/16 10:32:40;;;;;;;4.38;1.30;;;;;;;17.35;49.72;97634.59;4989866;28;20216;-73
2021/05/16 10:35:07;;;;;;;4.15;1.40;;;;;;;17.23;49.81;97612.63;4988514;28;20142;-73
2021/05/16 10:37:45;;;;;;;4.18;1.40;;;;;;;17.20;50.55;97620.94;4975080;28;20048;-75
2021/05/16 10:40:23;;;;;;;4.93;1.40;;;;;;;17.38;49.71;97626.28;4987127;28;20186;-74
2021/05/16 10:42:54;;;;;;;4.90;1.50;;;;;;;17.45;49.02;97606.03;5004974;28;20068;-73
2021/05/16 10:45:28;;;;;;;5.30;1.55;;;;;;;17.57;50.69;97621.91;4972767;28;20043;-71
2021/05/16 10:47:56;;;;;;;4.40;1.33;;;;;;;17.56;50.08;97615.06;5004562;28;20021;-73
2021/05/16 10:50:25;;;;;;;4.45;1.50;;;;;;;17.40;49.89;97618.19;4995011;28;20133;-75
2021/05/16 10:53:06;;;;;;;4.80;1.40;;;;;;;17.28;50.77;97620.69;4999532;28;20104;-73
2021/05/16 10:55:34;;;;;;;4.32;1.50;;;;;;;17.20;50.54;97627.00;5006508;28;20017;-73
2021/05/16 10:58:01;;;;;;;5.00;1.73;;;;;;;17.04;50.86;97604.66;4973860;28;20048;-75
2021/05/16 11:00:29;;;;;;;5.03;1.70;;;;;;;17.20;50.28;97611.25;5008635;28;20052;-76
2021/05/16 11:03:12;;;;;;;5.65;1.58;;;;;;;17.42;49.70;97608.28;4970727;28;20037;-73
2021/05/16 11:05:51;;;;;;;4.95;1.50;;;;;;;17.35;50.25;97604.88;4979501;28;20060;-74
2021/05/16 11:08:16;;;;;;;4.57;1.30;;;;;;;17.39;51.09;97600.81;4986529;28;20131;-75
2021/05/16 11:10:49;;;;;;;3.83;1.52;;;;;;;17.41;50.80;97601.41;4999898;28;20665;-75
2021/05/16 11:13:29;;;;;;;6.80;1.90;;;;;;;17.41;51.55;97615.38;4989293;28;20033;-76
2021/05/16 11:15:56;;;;;;;4.63;1.52;;;;;;;17.55;50.16;97604.75;4975349;28;20656;-77
2021/05/16 11:18:23;;;;;;;5.82;1.80;;;;;;;17.40;49.58;97590.09;4976086;28;20059;-76
2021/05/16 11:20:53;;;;;;;5.05;1.60;;;;;;;17.28;50.79;97583.91;4983816;28;20021;-74
2021/05/16 11:23:24;;;;;;;4.75;1.60;;;;;;;17.36;51.39;97601.22;4979892;28;20029;-75
2021/05/16 11:25:56;;;;;;;5.10;1.70;;;;;;;17.37;51.94;97594.97;4988390;28;20052;-75
2021/05/16 11:28:23;;;;;;;4.10;1.75;;;;;;;17.46;51.47;97605.00;5007923;28;20163;-73
2021/05/16 11:30:50;;;;;;;5.07;2.03;;;;;;;17.91;51.54;97598.03;4985319;28;20041;-73
2021/05/16 11:33:35;;;;;;;4.43;1.88;;;;;;;18.02;50.84;97592.03;4984616;28;20017;-76